sensor_id;sensor_type;location;lat;lon;timestamp;P1;durP1;ratioP1;P2;durP2;ratioP2
24557;SDS011;12726;49.148;8.582;2023-05-15T00:02:05;3.65;;;3.10;;
24557;SDS011;12726;49.148;8.582;2023-05-15T00:04:50;3.42;;;2.92;;
24557;SDS011;12726;49.148;8.582;2023-05-15T00:07:36;5.07;;;3.45;;
24557;SDS011;12726;49.148;8.582;2023-05-15T00:10:21;6.07;;;3.38;;
24557;SDS011;12726;49.148;8.582;2023-05-15T00:13:07;3.60;;;2.90;;
24557;SDS011;12726;49.148;8.582;2023-05-15T00:15:53;3.40;;;3.00;;
24557;SDS011;12726;49.148;8.582;2023-05-15T00:18:39;4.00;;;3.28;;
24557;SDS011;12726;49.148;8.582;2023-05-15T00:21:24;3.33;;;3.03;;
24557;SDS011;12726;49.148;8.582;2023-05-15T00:24:10;5.03;;;3.50;;
24557;SDS011;12726;49.148;8.582;2023-05-15T00:26:55;8.68;;;3.63;;
24557;SDS011;12726;49.148;8.582;2023-05-15T00:29:40;4.28;;;3.80;;
24557;SDS011;12726;49.148;8.582;2023-05-15T00:32:27;4.53;;;3.28;;
24557;SDS011;12726;49.148;8.582;2023-05-15T00:35:12;3.80;;;3.20;;
24557;SDS011;12726;49.148;8.582;2023-05-15T00:37:58;5.90;;;3.30;;
24557;SDS011;12726;49.148;8.582;2023-05-15T00:40:43;4.28;;;3.67;;
24557;SDS011;12726;49.148;8.582;2023-05-15T00:43:29;5.15;;;3.00;;
24557;SDS011;12726;49.148;8.582;2023-05-15T00:46:14;3.72;;;3.20;;
24557;SDS011;12726;49.148;8.582;2023-05-15T00:49:02;5.40;;;3.58;;
24557;SDS011;12726;49.148;8.582;2023-05-15T00:51:49;4.78;;;3.80;;
24557;SDS011;12726;49.148;8.582;2023-05-15T00:54:35;7.53;;;3.78;;
24557;SDS011;12726;49.148;8.582;2023-05-15T00:57:21;4.53;;;3.55;;
24557;SDS011;12726;49.148;8.582;2023-05-15T01:00:08;6.35;;;3.65;;
24557;SDS011;12726;49.148;8.582;2023-05-15T01:02:54;5.45;;;3.95;;
24557;SDS011;12726;49.148;8.582;2023-05-15T01:05:44;5.35;;;3.53;;
24557;SDS011;12726;49.148;8.582;2023-05-15T01:08:31;7.05;;;3.85;;
24557;SDS011;12726;49.148;8.582;2023-05-15T01:14:09;4.13;;;3.50;;
24557;SDS011;12726;49.148;8.582;2023-05-15T01:16:54;6.93;;;3.88;;
24557;SDS011;12726;49.148;8.582;2023-05-15T01:19:39;4.75;;;4.20;;
24557;SDS011;12726;49.148;8.582;2023-05-15T01:22:36;5.85;;;3.85;;
24557;SDS011;12726;49.148;8.582;2023-05-15T01:25:34;7.67;;;4.00;;
24557;SDS011;12726;49.148;8.582;2023-05-15T01:28:32;5.07;;;3.72;;
24557;SDS011;12726;49.148;8.582;2023-05-15T01:31:21;5.25;;;4.10;;
24557;SDS011;12726;49.148;8.582;2023-05-15T01:34:08;4.50;;;3.67;;
24557;SDS011;12726;49.148;8.582;2023-05-15T01:36:55;5.72;;;4.57;;
24557;SDS011;12726;49.148;8.582;2023-05-15T01:39:44;8.68;;;5.32;;
24557;SDS011;12726;49.148;8.582;2023-05-15T01:42:34;6.63;;;4.80;;
24557;SDS011;12726;49.148;8.582;2023-05-15T01:45:26;6.13;;;5.10;;
24557;SDS011;12726;49.148;8.582;2023-05-15T01:48:14;7.43;;;5.13;;
24557;SDS011;12726;49.148;8.582;2023-05-15T01:51:03;6.13;;;4.70;;
24557;SDS011;12726;49.148;8.582;2023-05-15T01:53:53;5.30;;;4.60;;
24557;SDS011;12726;49.148;8.582;2023-05-15T01:56:41;7.70;;;4.78;;
24557;SDS011;12726;49.148;8.582;2023-05-15T01:59:28;5.63;;;4.30;;
24557;SDS011;12726;49.148;8.582;2023-05-15T02:02:15;6.95;;;5.15;;
24557;SDS011;12726;49.148;8.582;2023-05-15T02:05:02;6.20;;;4.68;;
24557;SDS011;12726;49.148;8.582;2023-05-15T02:07:49;6.28;;;4.70;;
24557;SDS011;12726;49.148;8.582;2023-05-15T02:10:35;5.80;;;4.60;;
24557;SDS011;12726;49.148;8.582;2023-05-15T02:13:21;5.05;;;4.32;;
24557;SDS011;12726;49.148;8.582;2023-05-15T02:16:07;10.68;;;5.10;;
24557;SDS011;12726;49.148;8.582;2023-05-15T02:18:54;6.00;;;5.00;;
24557;SDS011;12726;49.148;8.582;2023-05-15T02:21:39;6.20;;;4.88;;
24557;SDS011;12726;49.148;8.582;2023-05-15T02:24:25;6.90;;;5.28;;
24557;SDS011;12726;49.148;8.582;2023-05-15T02:27:11;6.78;;;4.57;;
24557;SDS011;12726;49.148;8.582;2023-05-15T02:30:13;7.18;;;5.13;;
24557;SDS011;12726;49.148;8.582;2023-05-15T02:33:11;6.80;;;5.00;;
24557;SDS011;12726;49.148;8.582;2023-05-15T02:36:05;6.60;;;5.15;;
24557;SDS011;12726;49.148;8.582;2023-05-15T02:38:52;6.32;;;4.93;;
24557;SDS011;12726;49.148;8.582;2023-05-15T02:41:37;6.25;;;5.60;;
24557;SDS011;12726;49.148;8.582;2023-05-15T02:44:23;5.57;;;4.45;;
24557;SDS011;12726;49.148;8.582;2023-05-15T02:47:09;6.97;;;5.38;;
24557;SDS011;12726;49.148;8.582;2023-05-15T02:49:55;7.32;;;5.40;;
24557;SDS011;12726;49.148;8.582;2023-05-15T02:52:43;9.38;;;5.10;;
24557;SDS011;12726;49.148;8.582;2023-05-15T02:55:28;6.93;;;5.50;;
24557;SDS011;12726;49.148;8.582;2023-05-15T02:58:13;7.13;;;5.70;;
24557;SDS011;12726;49.148;8.582;2023-05-15T03:00:59;5.80;;;5.20;;
24557;SDS011;12726;49.148;8.582;2023-05-15T03:03:44;8.40;;;6.18;;
24557;SDS011;12726;49.148;8.582;2023-05-15T03:06:30;6.72;;;5.35;;
24557;SDS011;12726;49.148;8.582;2023-05-15T03:09:17;5.82;;;5.18;;
24557;SDS011;12726;49.148;8.582;2023-05-15T03:12:02;8.07;;;5.57;;
24557;SDS011;12726;49.148;8.582;2023-05-15T03:14:47;7.13;;;5.82;;
24557;SDS011;12726;49.148;8.582;2023-05-15T03:17:32;7.50;;;5.82;;
24557;SDS011;12726;49.148;8.582;2023-05-15T03:20:18;6.88;;;5.72;;
24557;SDS011;12726;49.148;8.582;2023-05-15T03:23:03;7.05;;;5.95;;
24557;SDS011;12726;49.148;8.582;2023-05-15T03:25:50;8.85;;;5.88;;
24557;SDS011;12726;49.148;8.582;2023-05-15T03:28:35;8.65;;;6.20;;
24557;SDS011;12726;49.148;8.582;2023-05-15T03:31:20;9.05;;;6.25;;
24557;SDS011;12726;49.148;8.582;2023-05-15T03:34:06;6.90;;;6.20;;
24557;SDS011;12726;49.148;8.582;2023-05-15T03:36:51;8.73;;;6.30;;
24557;SDS011;12726;49.148;8.582;2023-05-15T03:39:36;9.10;;;6.88;;
24557;SDS011;12726;49.148;8.582;2023-05-15T03:42:23;9.00;;;6.90;;
24557;SDS011;12726;49.148;8.582;2023-05-15T03:45:10;8.35;;;6.28;;
24557;SDS011;12726;49.148;8.582;2023-05-15T03:47:56;10.18;;;7.50;;
24557;SDS011;12726;49.148;8.582;2023-05-15T03:50:41;8.38;;;6.38;;
24557;SDS011;12726;49.148;8.582;2023-05-15T03:53:27;8.52;;;6.75;;
24557;SDS011;12726;49.148;8.582;2023-05-15T03:56:13;10.60;;;7.05;;
24557;SDS011;12726;49.148;8.582;2023-05-15T03:59:00;9.63;;;6.32;;
24557;SDS011;12726;49.148;8.582;2023-05-15T04:01:45;7.72;;;6.30;;
24557;SDS011;12726;49.148;8.582;2023-05-15T04:04:30;7.68;;;6.50;;
24557;SDS011;12726;49.148;8.582;2023-05-15T04:07:16;9.50;;;6.20;;
24557;SDS011;12726;49.148;8.582;2023-05-15T04:10:01;8.70;;;6.65;;
24557;SDS011;12726;49.148;8.582;2023-05-15T04:12:47;7.50;;;6.40;;
24557;SDS011;12726;49.148;8.582;2023-05-15T04:15:35;10.23;;;6.85;;
24557;SDS011;12726;49.148;8.582;2023-05-15T04:18:21;9.60;;;7.20;;
24557;SDS011;12726;49.148;8.582;2023-05-15T04:21:06;10.02;;;6.65;;
24557;SDS011;12726;49.148;8.582;2023-05-15T04:23:51;7.55;;;6.25;;
24557;SDS011;12726;49.148;8.582;2023-05-15T04:26:37;8.70;;;7.45;;
24557;SDS011;12726;49.148;8.582;2023-05-15T04:29:23;7.88;;;6.90;;
24557;SDS011;12726;49.148;8.582;2023-05-15T04:32:09;8.82;;;6.65;;
24557;SDS011;12726;49.148;8.582;2023-05-15T04:34:55;9.25;;;6.10;;
24557;SDS011;12726;49.148;8.582;2023-05-15T04:37:41;9.00;;;6.65;;
24557;SDS011;12726;49.148;8.582;2023-05-15T04:40:28;9.48;;;7.28;;
24557;SDS011;12726;49.148;8.582;2023-05-15T04:43:13;7.70;;;6.90;;
24557;SDS011;12726;49.148;8.582;2023-05-15T04:45:58;10.32;;;6.65;;
24557;SDS011;12726;49.148;8.582;2023-05-15T04:48:45;9.45;;;6.63;;
24557;SDS011;12726;49.148;8.582;2023-05-15T04:51:30;13.05;;;7.53;;
24557;SDS011;12726;49.148;8.582;2023-05-15T04:54:16;9.27;;;6.83;;
24557;SDS011;12726;49.148;8.582;2023-05-15T04:57:01;9.65;;;6.82;;
24557;SDS011;12726;49.148;8.582;2023-05-15T04:59:46;8.98;;;7.40;;
24557;SDS011;12726;49.148;8.582;2023-05-15T05:02:32;7.80;;;6.40;;
24557;SDS011;12726;49.148;8.582;2023-05-15T05:05:19;10.27;;;6.25;;
24557;SDS011;12726;49.148;8.582;2023-05-15T05:08:04;8.68;;;7.25;;
24557;SDS011;12726;49.148;8.582;2023-05-15T05:10:53;9.93;;;6.25;;
24557;SDS011;12726;49.148;8.582;2023-05-15T05:13:39;9.73;;;6.93;;
24557;SDS011;12726;49.148;8.582;2023-05-15T05:16:25;10.52;;;6.78;;
24557;SDS011;12726;49.148;8.582;2023-05-15T05:19:10;7.65;;;6.78;;
24557;SDS011;12726;49.148;8.582;2023-05-15T05:21:57;8.15;;;6.45;;
24557;SDS011;12726;49.148;8.582;2023-05-15T05:24:47;10.05;;;7.20;;
24557;SDS011;12726;49.148;8.582;2023-05-15T05:27:32;7.05;;;6.20;;
24557;SDS011;12726;49.148;8.582;2023-05-15T05:30:17;8.43;;;6.85;;
24557;SDS011;12726;49.148;8.582;2023-05-15T05:33:03;7.15;;;6.10;;
24557;SDS011;12726;49.148;8.582;2023-05-15T05:35:48;8.45;;;5.70;;
24557;SDS011;12726;49.148;8.582;2023-05-15T05:38:35;7.57;;;6.00;;
24557;SDS011;12726;49.148;8.582;2023-05-15T05:41:21;7.20;;;6.07;;
24557;SDS011;12726;49.148;8.582;2023-05-15T05:44:07;8.63;;;5.82;;
24557;SDS011;12726;49.148;8.582;2023-05-15T05:46:52;9.20;;;6.70;;
24557;SDS011;12726;49.148;8.582;2023-05-15T05:49:37;9.10;;;6.15;;
24557;SDS011;12726;49.148;8.582;2023-05-15T05:52:23;7.15;;;5.70;;
24557;SDS011;12726;49.148;8.582;2023-05-15T05:55:10;7.03;;;5.75;;
24557;SDS011;12726;49.148;8.582;2023-05-15T05:57:55;6.38;;;5.45;;
24557;SDS011;12726;49.148;8.582;2023-05-15T06:00:41;7.97;;;5.50;;
24557;SDS011;12726;49.148;8.582;2023-05-15T06:03:27;7.75;;;5.38;;
24557;SDS011;12726;49.148;8.582;2023-05-15T06:06:12;7.28;;;5.03;;
24557;SDS011;12726;49.148;8.582;2023-05-15T06:08:57;8.30;;;5.53;;
24557;SDS011;12726;49.148;8.582;2023-05-15T06:11:44;6.43;;;5.65;;
24557;SDS011;12726;49.148;8.582;2023-05-15T06:14:29;12.13;;;5.18;;
24557;SDS011;12726;49.148;8.582;2023-05-15T06:17:15;6.80;;;4.65;;
24557;SDS011;12726;49.148;8.582;2023-05-15T06:20:00;9.20;;;5.53;;
24557;SDS011;12726;49.148;8.582;2023-05-15T06:22:47;7.18;;;5.03;;
24557;SDS011;12726;49.148;8.582;2023-05-15T06:25:33;6.30;;;4.57;;
24557;SDS011;12726;49.148;8.582;2023-05-15T06:28:19;5.63;;;4.80;;
24557;SDS011;12726;49.148;8.582;2023-05-15T06:31:05;7.57;;;4.63;;
24557;SDS011;12726;49.148;8.582;2023-05-15T06:33:50;5.25;;;4.28;;
24557;SDS011;12726;49.148;8.582;2023-05-15T06:36:35;6.15;;;3.95;;
24557;SDS011;12726;49.148;8.582;2023-05-15T06:39:21;4.93;;;4.30;;
24557;SDS011;12726;49.148;8.582;2023-05-15T06:42:06;4.80;;;3.85;;
24557;SDS011;12726;49.148;8.582;2023-05-15T06:44:53;5.35;;;4.65;;
24557;SDS011;12726;49.148;8.582;2023-05-15T06:47:38;4.65;;;3.95;;
24557;SDS011;12726;49.148;8.582;2023-05-15T06:50:24;5.10;;;3.80;;
24557;SDS011;12726;49.148;8.582;2023-05-15T06:53:09;4.55;;;3.75;;
24557;SDS011;12726;49.148;8.582;2023-05-15T06:55:54;7.22;;;4.28;;
24557;SDS011;12726;49.148;8.582;2023-05-15T06:58:39;5.35;;;4.05;;
24557;SDS011;12726;49.148;8.582;2023-05-15T07:01:26;7.05;;;3.58;;
24557;SDS011;12726;49.148;8.582;2023-05-15T07:04:11;6.20;;;3.47;;
24557;SDS011;12726;49.148;8.582;2023-05-15T07:06:57;3.30;;;3.00;;
24557;SDS011;12726;49.148;8.582;2023-05-15T07:09:42;4.05;;;3.15;;
24557;SDS011;12726;49.148;8.582;2023-05-15T07:12:30;5.43;;;3.40;;
24557;SDS011;12726;49.148;8.582;2023-05-15T07:15:16;4.60;;;3.45;;
24557;SDS011;12726;49.148;8.582;2023-05-15T07:18:03;4.90;;;3.16;;
24557;SDS011;12726;49.148;8.582;2023-05-15T07:20:50;4.05;;;2.90;;
24557;SDS011;12726;49.148;8.582;2023-05-15T07:23:35;8.95;;;3.45;;
24557;SDS011;12726;49.148;8.582;2023-05-15T07:26:21;4.68;;;3.22;;
24557;SDS011;12726;49.148;8.582;2023-05-15T07:29:06;3.28;;;2.63;;
24557;SDS011;12726;49.148;8.582;2023-05-15T07:31:52;3.45;;;2.80;;
24557;SDS011;12726;49.148;8.582;2023-05-15T07:34:38;8.48;;;3.28;;
24557;SDS011;12726;49.148;8.582;2023-05-15T07:37:25;2.67;;;2.25;;
24557;SDS011;12726;49.148;8.582;2023-05-15T07:40:10;5.22;;;3.08;;
24557;SDS011;12726;49.148;8.582;2023-05-15T07:42:56;3.30;;;3.00;;
24557;SDS011;12726;49.148;8.582;2023-05-15T07:45:41;4.20;;;2.45;;
24557;SDS011;12726;49.148;8.582;2023-05-15T07:48:27;3.17;;;2.67;;
24557;SDS011;12726;49.148;8.582;2023-05-15T07:51:13;2.88;;;2.67;;
24557;SDS011;12726;49.148;8.582;2023-05-15T07:53:59;3.53;;;2.75;;
24557;SDS011;12726;49.148;8.582;2023-05-15T07:56:46;3.05;;;2.75;;
24557;SDS011;12726;49.148;8.582;2023-05-15T07:59:31;5.63;;;3.47;;
24557;SDS011;12726;49.148;8.582;2023-05-15T08:02:17;4.28;;;2.80;;
24557;SDS011;12726;49.148;8.582;2023-05-15T08:05:02;4.82;;;2.60;;
24557;SDS011;12726;49.148;8.582;2023-05-15T08:07:49;5.00;;;2.63;;
24557;SDS011;12726;49.148;8.582;2023-05-15T08:10:35;3.40;;;2.55;;
24557;SDS011;12726;49.148;8.582;2023-05-15T08:13:20;3.70;;;2.75;;
24557;SDS011;12726;49.148;8.582;2023-05-15T08:16:06;2.90;;;2.58;;
24557;SDS011;12726;49.148;8.582;2023-05-15T08:18:51;2.92;;;2.60;;
24557;SDS011;12726;49.148;8.582;2023-05-15T08:21:40;2.97;;;2.47;;
24557;SDS011;12726;49.148;8.582;2023-05-15T08:24:27;3.20;;;2.28;;
24557;SDS011;12726;49.148;8.582;2023-05-15T08:27:12;3.38;;;2.58;;
24557;SDS011;12726;49.148;8.582;2023-05-15T08:29:58;2.55;;;2.30;;
24557;SDS011;12726;49.148;8.582;2023-05-15T08:32:43;2.92;;;2.58;;
24557;SDS011;12726;49.148;8.582;2023-05-15T08:35:29;3.88;;;2.30;;
24557;SDS011;12726;49.148;8.582;2023-05-15T08:38:14;2.55;;;2.00;;
24557;SDS011;12726;49.148;8.582;2023-05-15T08:41:07;3.40;;;2.40;;
24557;SDS011;12726;49.148;8.582;2023-05-15T08:43:56;2.30;;;2.00;;
24557;SDS011;12726;49.148;8.582;2023-05-15T08:46:42;3.15;;;2.30;;
24557;SDS011;12726;49.148;8.582;2023-05-15T08:49:32;3.50;;;2.25;;
24557;SDS011;12726;49.148;8.582;2023-05-15T08:52:24;3.72;;;2.10;;
24557;SDS011;12726;49.148;8.582;2023-05-15T08:55:10;3.53;;;2.40;;
24557;SDS011;12726;49.148;8.582;2023-05-15T08:57:56;3.88;;;2.22;;
24557;SDS011;12726;49.148;8.582;2023-05-15T09:00:42;3.08;;;1.95;;
24557;SDS011;12726;49.148;8.582;2023-05-15T09:03:28;4.10;;;2.05;;
24557;SDS011;12726;49.148;8.582;2023-05-15T09:06:14;2.63;;;2.10;;
24557;SDS011;12726;49.148;8.582;2023-05-15T09:09:00;2.53;;;2.20;;
24557;SDS011;12726;49.148;8.582;2023-05-15T09:11:47;2.80;;;2.20;;
24557;SDS011;12726;49.148;8.582;2023-05-15T09:14:34;3.45;;;2.03;;
24557;SDS011;12726;49.148;8.582;2023-05-15T09:17:19;2.40;;;2.20;;
24557;SDS011;12726;49.148;8.582;2023-05-15T09:20:05;2.33;;;2.13;;
24557;SDS011;12726;49.148;8.582;2023-05-15T09:22:51;3.95;;;2.30;;
24557;SDS011;12726;49.148;8.582;2023-05-15T09:25:37;3.88;;;2.60;;
24557;SDS011;12726;49.148;8.582;2023-05-15T09:28:23;4.15;;;2.45;;
24557;SDS011;12726;49.148;8.582;2023-05-15T09:31:12;4.05;;;2.20;;
24557;SDS011;12726;49.148;8.582;2023-05-15T09:33:57;3.60;;;2.28;;
24557;SDS011;12726;49.148;8.582;2023-05-15T09:36:47;4.55;;;2.17;;
24557;SDS011;12726;49.148;8.582;2023-05-15T09:39:32;2.58;;;2.33;;
24557;SDS011;12726;49.148;8.582;2023-05-15T09:42:17;3.22;;;2.50;;
24557;SDS011;12726;49.148;8.582;2023-05-15T09:45:03;2.70;;;2.20;;
24557;SDS011;12726;49.148;8.582;2023-05-15T09:47:50;2.83;;;2.40;;
24557;SDS011;12726;49.148;8.582;2023-05-15T09:50:36;2.78;;;2.55;;
24557;SDS011;12726;49.148;8.582;2023-05-15T09:53:23;2.28;;;2.08;;
24557;SDS011;12726;49.148;8.582;2023-05-15T09:56:09;4.13;;;2.00;;
24557;SDS011;12726;49.148;8.582;2023-05-15T09:58:55;3.10;;;2.70;;
24557;SDS011;12726;49.148;8.582;2023-05-15T10:01:42;4.20;;;2.22;;
24557;SDS011;12726;49.148;8.582;2023-05-15T10:04:34;2.05;;;1.95;;
24557;SDS011;12726;49.148;8.582;2023-05-15T10:07:25;4.05;;;2.35;;
24557;SDS011;12726;49.148;8.582;2023-05-15T10:10:12;2.60;;;2.40;;
24557;SDS011;12726;49.148;8.582;2023-05-15T10:12:57;3.33;;;2.20;;
24557;SDS011;12726;49.148;8.582;2023-05-15T10:15:47;2.42;;;2.08;;
24557;SDS011;12726;49.148;8.582;2023-05-15T10:18:34;3.20;;;2.28;;
24557;SDS011;12726;49.148;8.582;2023-05-15T10:21:24;2.40;;;2.20;;
24557;SDS011;12726;49.148;8.582;2023-05-15T10:24:11;3.58;;;2.28;;
24557;SDS011;12726;49.148;8.582;2023-05-15T10:27:00;2.58;;;2.33;;
24557;SDS011;12726;49.148;8.582;2023-05-15T10:29:46;2.95;;;2.30;;
24557;SDS011;12726;49.148;8.582;2023-05-15T10:32:33;4.10;;;2.15;;
24557;SDS011;12726;49.148;8.582;2023-05-15T10:35:20;2.90;;;2.30;;
24557;SDS011;12726;49.148;8.582;2023-05-15T10:38:07;4.35;;;2.20;;
24557;SDS011;12726;49.148;8.582;2023-05-15T10:40:54;2.60;;;2.00;;
24557;SDS011;12726;49.148;8.582;2023-05-15T10:43:42;5.18;;;2.28;;
24557;SDS011;12726;49.148;8.582;2023-05-15T10:46:28;2.45;;;2.25;;
24557;SDS011;12726;49.148;8.582;2023-05-15T10:49:17;2.20;;;2.00;;
24557;SDS011;12726;49.148;8.582;2023-05-15T10:52:02;2.95;;;1.90;;
24557;SDS011;12726;49.148;8.582;2023-05-15T10:54:51;3.58;;;2.17;;
24557;SDS011;12726;49.148;8.582;2023-05-15T10:57:36;2.50;;;1.90;;
24557;SDS011;12726;49.148;8.582;2023-05-15T11:00:24;2.15;;;2.03;;
24557;SDS011;12726;49.148;8.582;2023-05-15T11:03:12;2.20;;;1.75;;
24557;SDS011;12726;49.148;8.582;2023-05-15T11:06:08;4.78;;;2.30;;
24557;SDS011;12726;49.148;8.582;2023-05-15T11:08:54;3.67;;;1.88;;
24557;SDS011;12726;49.148;8.582;2023-05-15T11:12:20;3.92;;;2.30;;
24557;SDS011;12726;49.148;8.582;2023-05-15T11:15:16;2.05;;;1.85;;
24557;SDS011;12726;49.148;8.582;2023-05-15T11:18:02;6.32;;;2.28;;
24557;SDS011;12726;49.148;8.582;2023-05-15T11:21:05;2.00;;;1.80;;
24557;SDS011;12726;49.148;8.582;2023-05-15T11:23:55;2.95;;;2.15;;
24557;SDS011;12726;49.148;8.582;2023-05-15T11:26:50;2.17;;;1.75;;
24557;SDS011;12726;49.148;8.582;2023-05-15T11:29:38;2.70;;;1.90;;
24557;SDS011;12726;49.148;8.582;2023-05-15T11:33:00;4.55;;;2.35;;
24557;SDS011;12726;49.148;8.582;2023-05-15T11:35:56;3.00;;;2.33;;
24557;SDS011;12726;49.148;8.582;2023-05-15T11:38:42;2.83;;;2.30;;
24557;SDS011;12726;49.148;8.582;2023-05-15T11:41:30;3.47;;;2.10;;
24557;SDS011;12726;49.148;8.582;2023-05-15T11:44:18;2.15;;;1.95;;
24557;SDS011;12726;49.148;8.582;2023-05-15T11:47:07;3.53;;;2.17;;
24557;SDS011;12726;49.148;8.582;2023-05-15T11:49:53;2.65;;;1.90;;
24557;SDS011;12726;49.148;8.582;2023-05-15T11:52:39;2.58;;;2.20;;
24557;SDS011;12726;49.148;8.582;2023-05-15T11:55:24;3.70;;;2.17;;
24557;SDS011;12726;49.148;8.582;2023-05-15T11:58:11;3.05;;;2.17;;
24557;SDS011;12726;49.148;8.582;2023-05-15T12:00:57;2.00;;;1.80;;
24557;SDS011;12726;49.148;8.582;2023-05-15T12:03:45;3.83;;;1.92;;
24557;SDS011;12726;49.148;8.582;2023-05-15T12:06:31;3.25;;;2.00;;
24557;SDS011;12726;49.148;8.582;2023-05-15T12:09:17;3.45;;;2.38;;
24557;SDS011;12726;49.148;8.582;2023-05-15T12:12:05;5.43;;;2.22;;
24557;SDS011;12726;49.148;8.582;2023-05-15T12:14:57;2.53;;;1.90;;
24557;SDS011;12726;49.148;8.582;2023-05-15T12:17:43;2.08;;;1.85;;
24557;SDS011;12726;49.148;8.582;2023-05-15T12:20:31;1.88;;;1.63;;
24557;SDS011;12726;49.148;8.582;2023-05-15T12:23:19;2.95;;;2.17;;
24557;SDS011;12726;49.148;8.582;2023-05-15T12:26:05;3.92;;;1.92;;
24557;SDS011;12726;49.148;8.582;2023-05-15T12:28:51;2.55;;;2.20;;
24557;SDS011;12726;49.148;8.582;2023-05-15T12:31:37;2.53;;;2.17;;
24557;SDS011;12726;49.148;8.582;2023-05-15T12:34:22;4.15;;;2.20;;
24557;SDS011;12726;49.148;8.582;2023-05-15T12:37:11;3.72;;;2.38;;
24557;SDS011;12726;49.148;8.582;2023-05-15T12:39:58;2.95;;;2.20;;
24557;SDS011;12726;49.148;8.582;2023-05-15T12:42:50;3.97;;;2.25;;
24557;SDS011;12726;49.148;8.582;2023-05-15T12:45:36;8.60;;;2.33;;
24557;SDS011;12726;49.148;8.582;2023-05-15T12:48:27;2.63;;;2.38;;
24557;SDS011;12726;49.148;8.582;2023-05-15T12:51:15;3.38;;;2.53;;
24557;SDS011;12726;49.148;8.582;2023-05-15T12:54:01;2.60;;;2.33;;
24557;SDS011;12726;49.148;8.582;2023-05-15T12:56:47;3.45;;;2.38;;
24557;SDS011;12726;49.148;8.582;2023-05-15T12:59:32;6.10;;;3.45;;
24557;SDS011;12726;49.148;8.582;2023-05-15T13:02:17;4.80;;;3.42;;
24557;SDS011;12726;49.148;8.582;2023-05-15T13:05:03;5.60;;;3.80;;
24557;SDS011;12726;49.148;8.582;2023-05-15T13:07:49;5.47;;;3.35;;
24557;SDS011;12726;49.148;8.582;2023-05-15T13:10:36;9.27;;;5.40;;
24557;SDS011;12726;49.148;8.582;2023-05-15T13:13:22;6.93;;;4.30;;
24557;SDS011;12726;49.148;8.582;2023-05-15T13:16:16;5.32;;;4.30;;
24557;SDS011;12726;49.148;8.582;2023-05-15T13:19:02;6.78;;;3.90;;
24557;SDS011;12726;49.148;8.582;2023-05-15T13:21:47;3.38;;;3.05;;
24557;SDS011;12726;49.148;8.582;2023-05-15T13:24:33;10.07;;;4.25;;
24557;SDS011;12726;49.148;8.582;2023-05-15T13:27:20;6.55;;;4.22;;
24557;SDS011;12726;49.148;8.582;2023-05-15T13:30:06;5.03;;;3.83;;
24557;SDS011;12726;49.148;8.582;2023-05-15T13:32:52;4.70;;;4.07;;
24557;SDS011;12726;49.148;8.582;2023-05-15T13:35:38;5.22;;;4.30;;
24557;SDS011;12726;49.148;8.582;2023-05-15T13:38:26;5.65;;;4.10;;
24557;SDS011;12726;49.148;8.582;2023-05-15T13:41:11;5.88;;;4.03;;
24557;SDS011;12726;49.148;8.582;2023-05-15T13:43:58;6.43;;;4.25;;
24557;SDS011;12726;49.148;8.582;2023-05-15T13:46:44;8.15;;;5.07;;
24557;SDS011;12726;49.148;8.582;2023-05-15T13:49:30;7.88;;;4.30;;
24557;SDS011;12726;49.148;8.582;2023-05-15T13:52:15;6.00;;;4.43;;
24557;SDS011;12726;49.148;8.582;2023-05-15T13:55:00;5.50;;;3.97;;
24557;SDS011;12726;49.148;8.582;2023-05-15T13:57:46;6.00;;;4.43;;
24557;SDS011;12726;49.148;8.582;2023-05-15T14:00:33;6.03;;;4.30;;
24557;SDS011;12726;49.148;8.582;2023-05-15T14:03:19;8.63;;;4.88;;
24557;SDS011;12726;49.148;8.582;2023-05-15T14:06:04;6.68;;;4.60;;
24557;SDS011;12726;49.148;8.582;2023-05-15T14:08:50;5.57;;;4.10;;
24557;SDS011;12726;49.148;8.582;2023-05-15T14:11:35;4.82;;;3.50;;
24557;SDS011;12726;49.148;8.582;2023-05-15T14:14:21;8.38;;;3.70;;
24557;SDS011;12726;49.148;8.582;2023-05-15T14:17:07;6.75;;;4.00;;
24557;SDS011;12726;49.148;8.582;2023-05-15T14:19:53;6.68;;;4.43;;
24557;SDS011;12726;49.148;8.582;2023-05-15T14:22:38;7.15;;;3.80;;
24557;SDS011;12726;49.148;8.582;2023-05-15T14:25:24;4.85;;;3.55;;
24557;SDS011;12726;49.148;8.582;2023-05-15T14:28:09;4.90;;;4.07;;
24557;SDS011;12726;49.148;8.582;2023-05-15T14:30:55;4.00;;;3.10;;
24557;SDS011;12726;49.148;8.582;2023-05-15T14:33:42;4.80;;;3.67;;
24557;SDS011;12726;49.148;8.582;2023-05-15T14:36:27;5.15;;;3.47;;
24557;SDS011;12726;49.148;8.582;2023-05-15T14:39:13;3.25;;;2.60;;
24557;SDS011;12726;49.148;8.582;2023-05-15T14:41:59;3.80;;;2.13;;
24557;SDS011;12726;49.148;8.582;2023-05-15T14:44:44;4.10;;;2.55;;
24557;SDS011;12726;49.148;8.582;2023-05-15T14:47:30;4.28;;;2.30;;
24557;SDS011;12726;49.148;8.582;2023-05-15T14:50:18;4.78;;;2.25;;
24557;SDS011;12726;49.148;8.582;2023-05-15T14:53:03;5.32;;;2.65;;
24557;SDS011;12726;49.148;8.582;2023-05-15T14:55:48;5.20;;;2.30;;
24557;SDS011;12726;49.148;8.582;2023-05-15T14:58:34;4.03;;;2.58;;
24557;SDS011;12726;49.148;8.582;2023-05-15T15:01:19;3.92;;;2.95;;
24557;SDS011;12726;49.148;8.582;2023-05-15T15:04:04;5.57;;;2.78;;
24557;SDS011;12726;49.148;8.582;2023-05-15T15:06:51;6.25;;;2.85;;
24557;SDS011;12726;49.148;8.582;2023-05-15T15:09:39;4.00;;;2.50;;
24557;SDS011;12726;49.148;8.582;2023-05-15T15:12:24;3.90;;;2.20;;
24557;SDS011;12726;49.148;8.582;2023-05-15T15:15:10;2.95;;;2.40;;
24557;SDS011;12726;49.148;8.582;2023-05-15T15:17:56;4.35;;;2.58;;
24557;SDS011;12726;49.148;8.582;2023-05-15T15:20:41;2.90;;;2.58;;
24557;SDS011;12726;49.148;8.582;2023-05-15T15:23:28;2.90;;;2.35;;
24557;SDS011;12726;49.148;8.582;2023-05-15T15:26:13;2.72;;;2.33;;
24557;SDS011;12726;49.148;8.582;2023-05-15T15:28:58;2.30;;;2.10;;
24557;SDS011;12726;49.148;8.582;2023-05-15T15:31:44;2.53;;;2.15;;
24557;SDS011;12726;49.148;8.582;2023-05-15T15:34:29;4.35;;;2.65;;
24557;SDS011;12726;49.148;8.582;2023-05-15T15:37:15;3.42;;;2.75;;
24557;SDS011;12726;49.148;8.582;2023-05-15T15:40:02;9.80;;;3.08;;
24557;SDS011;12726;49.148;8.582;2023-05-15T15:42:49;3.20;;;2.45;;
24557;SDS011;12726;49.148;8.582;2023-05-15T15:45:34;2.78;;;2.50;;
24557;SDS011;12726;49.148;8.582;2023-05-15T15:48:20;2.83;;;2.58;;
24557;SDS011;12726;49.148;8.582;2023-05-15T15:51:05;4.45;;;2.65;;
24557;SDS011;12726;49.148;8.582;2023-05-15T15:53:50;3.90;;;2.83;;
24557;SDS011;12726;49.148;8.582;2023-05-15T15:56:37;4.28;;;2.80;;
24557;SDS011;12726;49.148;8.582;2023-05-15T15:59:23;5.97;;;3.80;;
24557;SDS011;12726;49.148;8.582;2023-05-15T16:02:08;8.50;;;4.20;;
24557;SDS011;12726;49.148;8.582;2023-05-15T16:04:55;4.65;;;4.00;;
24557;SDS011;12726;49.148;8.582;2023-05-15T16:07:40;8.05;;;4.25;;
24557;SDS011;12726;49.148;8.582;2023-05-15T16:10:26;6.28;;;4.53;;
24557;SDS011;12726;49.148;8.582;2023-05-15T16:13:12;8.63;;;4.82;;
24557;SDS011;12726;49.148;8.582;2023-05-15T16:15:58;4.60;;;4.07;;
24557;SDS011;12726;49.148;8.582;2023-05-15T16:18:43;3.35;;;3.05;;
24557;SDS011;12726;49.148;8.582;2023-05-15T16:21:28;3.60;;;2.60;;
24557;SDS011;12726;49.148;8.582;2023-05-15T16:24:13;3.55;;;2.75;;
24557;SDS011;12726;49.148;8.582;2023-05-15T16:26:59;3.83;;;3.13;;
24557;SDS011;12726;49.148;8.582;2023-05-15T16:29:46;4.63;;;3.53;;
24557;SDS011;12726;49.148;8.582;2023-05-15T16:32:31;6.32;;;4.10;;
24557;SDS011;12726;49.148;8.582;2023-05-15T16:35:17;6.28;;;3.95;;
24557;SDS011;12726;49.148;8.582;2023-05-15T16:38:04;4.22;;;3.83;;
24557;SDS011;12726;49.148;8.582;2023-05-15T16:40:50;6.05;;;4.32;;
24557;SDS011;12726;49.148;8.582;2023-05-15T16:43:35;6.68;;;4.50;;
24557;SDS011;12726;49.148;8.582;2023-05-15T16:46:22;7.88;;;4.43;;
24557;SDS011;12726;49.148;8.582;2023-05-15T16:49:08;6.15;;;4.00;;